Decoded Metar for PAGS (GUSTAVUS in AK, USA) (IATA:GST) | Meteo·Mobile Aviation Weather
aviador You're here:

PAGS Decoded Metar

GUSTAVUS in AK, USA
Report Time2019-03-22 13:56:00
UTC Time2019-03-22 14:25:16
Flight Rules vfr VFR
Wind250° at 03 kt
W.Decomp.*RWY 20: 2.6 kt HW 1.5 kt RCW
RWY 29: 1.5 kt HW 2.6 kt LCW
W.Rank250° ranks 20
Current wind is below 250° avg. (5.4)
Visibility9999 m
Phenomena:N/A
Clouds:Overcast 080 Hf
Ceiling8,000 ft
Temp04°C (ISA -11)
Dew Point04°C (100% RH)
AAT1.6°C
QNH1010 hPa
Density Alt-1,083 ft
Elevation30 ft
Report Wrong Elevation
Raw Report
PAGS 221356Z AUTO 25003KT 10SM OVC080 04/04 A2984 RMK AO2 SLP107
T00390039=

Extra information for PAGS:More info

Metar Taf Metar & Taf Last 4 Metars F.Rules Stats Wind Profile Meteogram Temp Stats Airport Information Weather charts Add Link Nearby VenuesMetar ALERT Operation Metar Decoded Social comments

AIRNAV info for PAGS